createdAt,value
2017-08-30T00:00:30.646Z,17.20
2017-08-30T00:02:58.367Z,17.20
2017-08-30T00:05:26.015Z,17.20
2017-08-30T00:07:53.667Z,17.10
2017-08-30T00:10:22.579Z,17.10
2017-08-30T00:12:50.256Z,17.10
2017-08-30T00:15:18.126Z,17.00
2017-08-30T00:17:45.790Z,17.00
2017-08-30T00:20:13.437Z,17.00
2017-08-30T00:22:41.180Z,17.00
2017-08-30T00:25:20.897Z,16.90
2017-08-30T00:27:48.581Z,16.90
2017-08-30T00:30:17.677Z,16.90
2017-08-30T00:33:03.000Z,16.80
2017-08-30T00:35:37.272Z,16.80
2017-08-30T00:38:11.837Z,16.80
2017-08-30T00:40:46.126Z,16.80
2017-08-30T00:43:16.170Z,16.80
2017-08-30T00:45:44.517Z,16.80
2017-08-30T00:48:12.990Z,16.80
2017-08-30T00:50:41.961Z,16.70
2017-08-30T00:53:10.240Z,16.70
2017-08-30T00:55:38.533Z,16.70
2017-08-30T00:58:06.262Z,16.70
2017-08-30T01:00:34.918Z,16.60
2017-08-30T01:03:03.155Z,16.60
2017-08-30T01:05:31.330Z,16.50
2017-08-30T01:07:59.604Z,16.50
2017-08-30T01:10:27.368Z,16.50
2017-08-30T01:12:55.110Z,16.40
2017-08-30T01:15:23.249Z,16.40
2017-08-30T01:17:51.377Z,16.40
2017-08-30T01:20:20.064Z,16.30
2017-08-30T01:22:48.030Z,16.30
2017-08-30T01:25:15.742Z,16.40
2017-08-30T01:27:43.409Z,16.40
2017-08-30T01:30:11.076Z,16.40
2017-08-30T01:32:38.778Z,16.50
2017-08-30T01:35:06.779Z,16.40
2017-08-30T01:37:37.569Z,16.40
2017-08-30T01:40:05.423Z,16.40
2017-08-30T01:42:33.088Z,16.30
2017-08-30T01:45:01.204Z,16.30
2017-08-30T01:47:29.046Z,16.30
2017-08-30T01:49:56.923Z,16.20
2017-08-30T01:52:24.977Z,16.20
2017-08-30T01:54:52.862Z,16.30
2017-08-30T01:57:20.894Z,16.30
2017-08-30T01:59:49.734Z,16.30
2017-08-30T02:02:17.785Z,16.30
2017-08-30T02:04:49.428Z,16.30
2017-08-30T02:07:17.568Z,16.30
2017-08-30T02:09:45.451Z,16.30
2017-08-30T02:12:13.753Z,16.20
2017-08-30T02:14:41.412Z,16.20
2017-08-30T02:17:09.267Z,16.10
2017-08-30T02:19:36.973Z,16.10
2017-08-30T02:22:04.634Z,16.10
2017-08-30T02:24:32.399Z,16.00
2017-08-30T02:27:00.440Z,16.00
2017-08-30T02:29:28.347Z,16.00
2017-08-30T02:31:56.076Z,16.00
2017-08-30T02:34:23.725Z,16.00
2017-08-30T02:36:51.398Z,15.90
2017-08-30T02:39:19.050Z,15.90
2017-08-30T02:41:46.766Z,15.90
2017-08-30T02:44:14.415Z,15.90
2017-08-30T02:46:42.070Z,16.00
2017-08-30T02:49:09.742Z,16.00
2017-08-30T02:51:37.393Z,16.00
2017-08-30T02:54:05.089Z,16.00
2017-08-30T02:56:32.749Z,15.90
2017-08-30T02:59:00.409Z,15.90
2017-08-30T03:01:28.106Z,15.90
2017-08-30T03:03:55.870Z,15.80
2017-08-30T03:06:23.579Z,15.80
2017-08-30T03:08:51.401Z,15.80
2017-08-30T03:11:19.056Z,15.80
2017-08-30T03:13:46.742Z,15.80
2017-08-30T03:16:14.413Z,15.70
2017-08-30T03:18:42.200Z,15.70
2017-08-30T03:21:09.878Z,15.60
2017-08-30T03:23:37.524Z,15.60
2017-08-30T03:26:05.204Z,15.50
2017-08-30T03:28:32.886Z,15.50
2017-08-30T03:31:00.591Z,15.40
2017-08-30T03:33:28.294Z,15.30
2017-08-30T03:35:55.953Z,15.30
2017-08-30T03:38:23.629Z,15.30
2017-08-30T03:40:51.311Z,15.30
2017-08-30T03:43:19.330Z,15.30
2017-08-30T03:45:47.010Z,15.30
2017-08-30T03:48:14.674Z,15.20
2017-08-30T03:50:43.242Z,15.20
2017-08-30T03:53:10.890Z,15.20
2017-08-30T03:55:38.726Z,15.20
2017-08-30T03:58:06.411Z,15.30
2017-08-30T04:00:34.064Z,15.30
2017-08-30T04:03:01.741Z,15.30
2017-08-30T04:05:29.406Z,15.30
2017-08-30T04:07:57.098Z,15.20
2017-08-30T04:10:24.758Z,15.20
2017-08-30T04:12:52.461Z,15.30
2017-08-30T04:15:20.150Z,15.30
2017-08-30T04:17:47.799Z,15.20
2017-08-30T04:20:15.667Z,15.20
2017-08-30T04:22:43.319Z,15.10
2017-08-30T04:25:10.970Z,15.20
2017-08-30T04:27:38.636Z,15.10
2017-08-30T04:30:06.294Z,15.00
2017-08-30T04:32:34.172Z,15.10
2017-08-30T04:35:01.852Z,15.10
2017-08-30T04:37:29.506Z,15.20
2017-08-30T04:39:57.195Z,15.20
2017-08-30T04:42:24.847Z,15.10
2017-08-30T04:44:52.959Z,15.10
2017-08-30T04:47:20.606Z,15.10
2017-08-30T04:49:48.269Z,15.20
2017-08-30T04:52:15.945Z,15.20
2017-08-30T04:54:43.603Z,15.20
2017-08-30T04:57:11.603Z,15.20
2017-08-30T04:59:39.249Z,15.30
2017-08-30T05:02:06.890Z,15.30
2017-08-30T05:04:34.564Z,15.40
2017-08-30T05:07:03.181Z,15.40
2017-08-30T05:09:31.620Z,15.40
2017-08-30T05:11:59.314Z,15.50
2017-08-30T05:14:26.962Z,15.50
2017-08-30T05:16:54.638Z,15.60
2017-08-30T05:19:22.288Z,15.60
2017-08-30T05:21:50.171Z,15.60
2017-08-30T05:24:17.830Z,15.70
2017-08-30T05:26:45.502Z,15.80
2017-08-30T05:29:13.325Z,15.90
2017-08-30T05:31:40.983Z,16.10
2017-08-30T05:34:08.887Z,16.30
2017-08-30T05:36:36.551Z,16.40
2017-08-30T05:39:04.358Z,16.60
2017-08-30T05:41:32.111Z,17.00
2017-08-30T05:43:59.811Z,17.40
2017-08-30T05:46:27.550Z,17.60
2017-08-30T05:48:55.254Z,17.70
2017-08-30T05:51:22.934Z,17.70
2017-08-30T05:53:50.600Z,17.60
2017-08-30T05:56:18.249Z,17.70
2017-08-30T05:58:45.959Z,17.70
2017-08-30T06:01:13.620Z,17.70
2017-08-30T06:03:41.292Z,17.70
2017-08-30T06:06:08.998Z,17.70
2017-08-30T06:08:37.346Z,17.90
2017-08-30T06:11:05.377Z,18.00
2017-08-30T06:13:33.054Z,18.10
2017-08-30T06:16:00.717Z,18.00
2017-08-30T06:18:28.405Z,18.20
2017-08-30T06:20:56.075Z,18.40
2017-08-30T06:23:23.841Z,18.70
2017-08-30T06:25:51.498Z,19.10
2017-08-30T06:28:19.302Z,19.70
2017-08-30T06:30:47.010Z,20.40
2017-08-30T06:33:14.669Z,20.90
2017-08-30T06:38:17.247Z,22.40
2017-08-30T06:40:45.370Z,23.40
2017-08-30T06:43:13.021Z,24.10
2017-08-30T06:45:40.675Z,25.00
2017-08-30T06:48:08.342Z,25.50
2017-08-30T06:50:35.986Z,26.10
2017-08-30T06:53:03.675Z,26.90
2017-08-30T06:55:31.322Z,27.20
2017-08-30T06:57:58.977Z,27.40
2017-08-30T07:00:26.651Z,28.00
2017-08-30T07:02:54.294Z,27.80
2017-08-30T07:05:22.096Z,28.20
2017-08-30T07:07:49.759Z,28.60
2017-08-30T07:10:17.398Z,29.00
2017-08-30T07:12:45.066Z,29.20
2017-08-30T07:15:12.794Z,29.90
2017-08-30T07:17:40.587Z,30.00
2017-08-30T07:20:08.260Z,30.40
2017-08-30T07:22:35.922Z,30.40
2017-08-30T07:25:03.750Z,30.70
2017-08-30T07:27:31.396Z,31.20
2017-08-30T07:29:59.204Z,31.80
2017-08-30T07:32:26.863Z,31.90
2017-08-30T07:34:54.561Z,31.90
2017-08-30T07:37:22.230Z,32.10
2017-08-30T07:39:49.922Z,32.40
2017-08-30T07:42:17.682Z,32.00
2017-08-30T07:44:45.418Z,32.00
2017-08-30T07:47:13.050Z,32.10
2017-08-30T07:49:40.715Z,32.80
2017-08-30T07:52:08.353Z,32.90
2017-08-30T07:54:36.110Z,32.90
2017-08-30T07:57:03.797Z,32.70
2017-08-30T07:59:31.455Z,33.00
2017-08-30T08:01:59.424Z,32.90
2017-08-30T08:04:27.140Z,33.40
2017-08-30T08:06:54.831Z,33.70
2017-08-30T08:09:22.714Z,33.90
2017-08-30T08:11:50.366Z,34.40
2017-08-30T08:14:18.809Z,33.90
2017-08-30T08:16:46.538Z,33.70
2017-08-30T08:19:14.185Z,34.00
2017-08-30T08:21:41.844Z,34.10
2017-08-30T08:24:09.875Z,33.90
2017-08-30T08:26:37.518Z,34.50
2017-08-30T08:29:05.174Z,34.40
2017-08-30T08:31:32.862Z,34.70
2017-08-30T08:34:00.498Z,34.90
2017-08-30T08:36:28.151Z,34.90
2017-08-30T08:38:56.082Z,35.00
2017-08-30T08:41:23.726Z,35.10
2017-08-30T08:43:51.378Z,34.90
2017-08-30T08:46:19.449Z,34.60
2017-08-30T08:48:47.094Z,34.70
2017-08-30T08:51:14.748Z,34.90
2017-08-30T08:53:42.681Z,34.20
2017-08-30T08:56:10.375Z,33.80
2017-08-30T08:58:38.029Z,34.00
2017-08-30T09:01:05.975Z,34.40
2017-08-30T09:03:33.661Z,35.00
2017-08-30T09:06:01.359Z,34.70
2017-08-30T09:08:31.535Z,34.80
2017-08-30T09:10:59.318Z,34.80
2017-08-30T09:13:26.995Z,34.60
2017-08-30T09:15:54.891Z,34.00
2017-08-30T09:18:22.537Z,34.30
2017-08-30T09:20:50.176Z,33.90
2017-08-30T09:23:18.051Z,33.90
2017-08-30T09:25:45.704Z,33.80
2017-08-30T09:28:13.358Z,33.70
2017-08-30T09:30:41.275Z,33.80
2017-08-30T09:33:08.931Z,33.50
2017-08-30T09:35:37.237Z,33.90
2017-08-30T09:38:05.179Z,34.20
2017-08-30T09:40:32.834Z,34.90
2017-08-30T09:43:00.473Z,35.10
2017-08-30T09:45:28.293Z,35.60
2017-08-30T09:47:55.937Z,35.50
2017-08-30T09:50:24.038Z,35.40
2017-08-30T09:52:51.852Z,35.60
2017-08-30T09:55:19.497Z,36.00
2017-08-30T09:57:47.146Z,36.20
2017-08-30T10:00:14.855Z,36.10
2017-08-30T10:02:42.886Z,36.50
2017-08-30T10:05:10.976Z,36.60
2017-08-30T10:07:46.295Z,35.90
2017-08-30T10:10:14.232Z,36.10
2017-08-30T10:12:42.140Z,36.80
2017-08-30T10:15:10.232Z,37.40
2017-08-30T10:17:39.047Z,36.90
2017-08-30T10:20:09.109Z,36.80
2017-08-30T10:22:37.679Z,36.70
2017-08-30T10:25:05.658Z,36.50
2017-08-30T10:27:33.698Z,36.10
2017-08-30T10:30:01.980Z,35.90
2017-08-30T10:32:30.117Z,36.00
2017-08-30T10:34:58.160Z,36.30
2017-08-30T10:37:26.766Z,36.80
2017-08-30T10:39:54.437Z,36.90
2017-08-30T10:42:22.102Z,37.00
2017-08-30T10:44:55.143Z,36.90
2017-08-30T10:47:40.666Z,37.10
2017-08-30T10:50:09.034Z,36.80
2017-08-30T10:52:36.682Z,36.60
2017-08-30T10:55:04.330Z,36.20
2017-08-30T10:57:32.227Z,35.60
2017-08-30T10:59:59.863Z,35.00
2017-08-30T11:02:27.513Z,34.30
2017-08-30T11:04:55.356Z,34.00
2017-08-30T11:07:22.996Z,34.40
2017-08-30T11:09:50.678Z,34.40
2017-08-30T11:12:18.374Z,34.40
2017-08-30T11:14:46.028Z,34.80
2017-08-30T11:17:28.139Z,35.30
2017-08-30T11:19:56.481Z,35.90
2017-08-30T11:22:24.561Z,36.30
2017-08-30T11:24:54.104Z,36.60
2017-08-30T11:27:24.555Z,36.50
2017-08-30T11:29:56.160Z,36.80
2017-08-30T11:32:27.881Z,37.20
2017-08-30T11:34:55.526Z,37.40
2017-08-30T11:37:23.166Z,37.50
2017-08-30T11:39:51.006Z,37.40
2017-08-30T11:42:18.682Z,37.90
2017-08-30T11:44:46.327Z,37.70
2017-08-30T11:47:14.018Z,37.70
2017-08-30T11:52:38.214Z,37.10
2017-08-30T11:55:05.850Z,36.90
2017-08-30T11:57:33.539Z,36.60
2017-08-30T12:00:01.405Z,36.50
2017-08-30T12:02:29.036Z,36.20
2017-08-30T12:04:56.695Z,36.80
2017-08-30T12:07:24.591Z,36.90
2017-08-30T12:09:52.223Z,36.70
2017-08-30T12:12:19.897Z,37.00
2017-08-30T12:14:47.786Z,37.20
2017-08-30T12:17:15.435Z,37.50
2017-08-30T12:19:43.076Z,36.10
2017-08-30T12:22:10.788Z,36.10
2017-08-30T12:24:38.439Z,36.80
2017-08-30T12:27:06.103Z,37.00
2017-08-30T12:29:34.142Z,37.50
2017-08-30T12:32:01.791Z,37.50
2017-08-30T12:34:29.452Z,37.80
2017-08-30T12:37:02.919Z,37.90
2017-08-30T12:39:36.166Z,38.10
2017-08-30T12:42:03.830Z,38.20
2017-08-30T12:44:31.603Z,38.50
2017-08-30T12:46:59.258Z,38.40
2017-08-30T12:49:26.981Z,38.60
2017-08-30T12:51:54.637Z,38.30
2017-08-30T12:54:22.298Z,37.90
2017-08-30T12:56:49.986Z,37.60
2017-08-30T12:59:17.647Z,37.90
2017-08-30T13:01:45.482Z,37.80
2017-08-30T13:04:13.162Z,37.70
2017-08-30T13:06:40.805Z,37.60
2017-08-30T13:09:08.506Z,37.90
2017-08-30T13:11:36.158Z,38.00
2017-08-30T13:14:03.823Z,38.20
2017-08-30T13:16:31.554Z,38.00
2017-08-30T13:18:59.227Z,37.60
2017-08-30T13:21:26.880Z,37.90
2017-08-30T13:23:54.577Z,38.20
2017-08-30T13:26:22.235Z,38.00
2017-08-30T13:28:49.874Z,38.10
2017-08-30T13:31:17.788Z,38.20
2017-08-30T13:33:45.451Z,38.10
2017-08-30T13:36:13.110Z,38.10
2017-08-30T13:38:40.823Z,37.90
2017-08-30T13:41:08.462Z,37.70
2017-08-30T13:43:36.128Z,37.30
2017-08-30T13:46:03.937Z,37.00
2017-08-30T13:48:31.936Z,36.90
2017-08-30T13:50:59.579Z,36.80
2017-08-30T13:53:27.268Z,36.50
2017-08-30T13:55:54.919Z,36.20
2017-08-30T13:58:22.587Z,36.00
2017-08-30T14:00:50.425Z,36.00
2017-08-30T14:03:18.117Z,35.60
2017-08-30T14:05:45.824Z,35.40
2017-08-30T14:08:13.827Z,35.20
2017-08-30T14:10:41.496Z,35.00
2017-08-30T14:13:09.140Z,34.60
2017-08-30T14:15:36.835Z,34.30
2017-08-30T14:18:04.481Z,34.10
2017-08-30T14:20:32.131Z,34.10
2017-08-30T14:23:00.050Z,33.90
2017-08-30T14:25:27.691Z,33.90
2017-08-30T14:27:55.345Z,33.70
2017-08-30T14:30:23.164Z,33.50
2017-08-30T14:32:50.811Z,33.40
2017-08-30T14:35:18.455Z,33.10
2017-08-30T14:37:46.484Z,33.10
2017-08-30T14:40:14.146Z,33.10
2017-08-30T14:42:41.824Z,33.00
2017-08-30T14:45:09.695Z,32.90
2017-08-30T14:47:37.744Z,32.90
2017-08-30T14:50:05.837Z,32.70
2017-08-30T14:52:34.438Z,32.60
2017-08-30T14:55:02.499Z,32.50
2017-08-30T14:57:30.202Z,32.40
2017-08-30T14:59:57.880Z,32.40
2017-08-30T15:02:25.560Z,32.30
2017-08-30T15:04:53.224Z,32.30
2017-08-30T15:07:20.936Z,32.10
2017-08-30T15:09:48.579Z,32.00
2017-08-30T15:12:16.226Z,31.90
2017-08-30T15:14:43.938Z,31.70
2017-08-30T15:17:11.617Z,31.50
2017-08-30T15:19:39.265Z,31.30
2017-08-30T15:22:06.944Z,31.20
2017-08-30T15:24:34.599Z,31.10
2017-08-30T15:27:02.288Z,30.90
2017-08-30T15:29:30.347Z,30.90
2017-08-30T15:31:58.015Z,30.90
2017-08-30T15:34:26.013Z,30.90
2017-08-30T15:36:54.529Z,31.00
2017-08-30T15:39:22.175Z,31.20
2017-08-30T15:41:50.342Z,31.30
2017-08-30T15:44:18.064Z,31.40
2017-08-30T15:46:45.731Z,31.50
2017-08-30T15:49:13.392Z,31.50
2017-08-30T15:51:41.198Z,31.50
2017-08-30T15:54:08.880Z,31.50
2017-08-30T15:56:36.541Z,31.60
2017-08-30T15:59:08.996Z,31.50
2017-08-30T16:01:36.650Z,31.50
2017-08-30T16:04:04.424Z,31.40
2017-08-30T16:06:32.216Z,31.30
2017-08-30T16:09:01.220Z,31.10
2017-08-30T16:11:29.052Z,31.00
2017-08-30T16:13:56.966Z,30.90
2017-08-30T16:16:24.644Z,30.90
2017-08-30T16:18:52.304Z,30.80
2017-08-30T16:21:20.772Z,30.70
2017-08-30T16:23:48.575Z,30.70
2017-08-30T16:26:16.225Z,30.60
2017-08-30T16:28:43.900Z,30.60
2017-08-30T16:31:12.049Z,30.50
2017-08-30T16:33:39.696Z,30.40
2017-08-30T16:36:07.422Z,30.30
2017-08-30T16:38:35.359Z,30.20
2017-08-30T16:41:03.510Z,30.10
2017-08-30T16:43:31.245Z,30.00
2017-08-30T16:45:58.892Z,29.90
2017-08-30T16:48:26.537Z,29.80
2017-08-30T16:50:54.221Z,29.70
2017-08-30T16:53:21.946Z,29.60
2017-08-30T16:55:49.613Z,29.50
2017-08-30T16:58:17.424Z,29.50
2017-08-30T17:00:45.573Z,29.40
2017-08-30T17:03:14.000Z,29.20
2017-08-30T17:05:41.771Z,29.20
2017-08-30T17:08:09.716Z,29.10
2017-08-30T17:10:38.131Z,29.00
2017-08-30T17:13:05.881Z,28.90
2017-08-30T17:15:34.058Z,28.90
2017-08-30T17:18:01.792Z,28.80
2017-08-30T17:20:29.624Z,28.80
2017-08-30T17:22:57.371Z,28.70
2017-08-30T17:25:25.051Z,28.60
2017-08-30T17:27:53.035Z,28.60
2017-08-30T17:30:20.696Z,28.50
2017-08-30T17:32:48.623Z,28.40
2017-08-30T17:35:16.298Z,28.30
2017-08-30T17:37:43.955Z,28.20
2017-08-30T17:40:11.604Z,28.10
2017-08-30T17:42:41.137Z,28.00
2017-08-30T17:45:08.790Z,27.90
2017-08-30T17:47:36.438Z,27.80
2017-08-30T17:50:04.415Z,27.70
2017-08-30T17:52:36.386Z,27.60
2017-08-30T17:55:04.121Z,27.50
2017-08-30T17:57:32.455Z,27.40
2017-08-30T18:00:00.222Z,27.30
2017-08-30T18:02:27.922Z,27.20
2017-08-30T18:04:55.646Z,27.10
2017-08-30T18:07:23.325Z,27.00
2017-08-30T18:09:51.318Z,26.90
2017-08-30T18:12:19.139Z,26.90
2017-08-30T18:14:46.821Z,26.80
2017-08-30T18:17:14.880Z,26.70
2017-08-30T18:19:42.624Z,26.70
2017-08-30T18:22:10.293Z,26.60
2017-08-30T18:24:38.022Z,26.50
2017-08-30T18:27:05.723Z,26.40
2017-08-30T18:29:33.880Z,26.40
2017-08-30T18:32:01.526Z,26.30
2017-08-30T18:34:29.680Z,26.20
2017-08-30T18:36:57.420Z,26.10
2017-08-30T18:39:25.078Z,26.00
2017-08-30T18:41:53.034Z,25.90
2017-08-30T18:44:20.910Z,25.90
2017-08-30T18:46:48.892Z,25.80
2017-08-30T18:49:16.978Z,25.70
2017-08-30T18:51:44.727Z,25.60
2017-08-30T18:54:12.382Z,25.60
2017-08-30T18:56:40.079Z,25.60
2017-08-30T18:59:07.740Z,25.50
2017-08-30T19:01:35.429Z,25.40
2017-08-30T19:04:03.135Z,25.30
2017-08-30T19:06:30.836Z,25.30
2017-08-30T19:08:59.116Z,25.20
2017-08-30T19:11:27.187Z,25.20
2017-08-30T19:13:55.001Z,25.10
2017-08-30T19:16:22.739Z,25.00
2017-08-30T19:18:50.442Z,24.90
2017-08-30T19:21:18.654Z,24.80
2017-08-30T19:23:46.702Z,24.70
2017-08-30T19:26:14.683Z,24.70
2017-08-30T19:28:42.346Z,24.60
2017-08-30T19:31:10.001Z,24.50
2017-08-30T19:33:37.696Z,24.40
2017-08-30T19:36:05.407Z,24.30
2017-08-30T19:38:33.061Z,24.30
2017-08-30T19:41:00.753Z,24.20
2017-08-30T19:43:28.486Z,24.10
2017-08-30T19:45:56.141Z,23.90
2017-08-30T19:48:24.175Z,23.70
2017-08-30T19:50:51.851Z,23.70
2017-08-30T19:53:19.530Z,23.70
2017-08-30T19:55:47.290Z,23.60
2017-08-30T19:58:15.145Z,23.60
2017-08-30T20:00:42.802Z,23.60
2017-08-30T20:03:10.501Z,23.40
2017-08-30T20:05:38.162Z,23.40
2017-08-30T20:08:05.819Z,23.30
2017-08-30T20:10:34.678Z,23.20
2017-08-30T20:13:02.370Z,23.10
2017-08-30T20:15:30.035Z,23.00
2017-08-30T20:17:58.242Z,23.00
2017-08-30T20:20:26.104Z,23.00
2017-08-30T20:22:53.780Z,23.00
2017-08-30T20:25:21.554Z,23.00
2017-08-30T20:27:49.215Z,22.90
2017-08-30T20:30:16.948Z,22.90
2017-08-30T20:32:44.811Z,22.90
2017-08-30T20:35:12.979Z,22.90
2017-08-30T20:37:40.752Z,22.80
2017-08-30T20:40:08.818Z,22.90
2017-08-30T20:42:36.511Z,22.80
2017-08-30T20:45:04.590Z,22.80
2017-08-30T20:47:32.282Z,22.80
2017-08-30T20:49:59.941Z,22.80
2017-08-30T20:52:27.619Z,22.70
2017-08-30T20:54:55.293Z,22.70
2017-08-30T20:57:22.951Z,22.70
2017-08-30T20:59:50.611Z,22.70
2017-08-30T21:02:20.058Z,22.70
2017-08-30T21:04:47.738Z,22.70
2017-08-30T21:07:15.654Z,22.70
2017-08-30T21:09:43.380Z,22.70
2017-08-30T21:12:11.168Z,22.60
2017-08-30T21:14:38.828Z,22.60
2017-08-30T21:17:06.568Z,22.60
2017-08-30T21:19:34.417Z,22.60
2017-08-30T21:22:02.080Z,22.50
2017-08-30T21:24:29.758Z,22.50
2017-08-30T21:26:57.793Z,22.50
2017-08-30T21:29:26.054Z,22.40
2017-08-30T21:31:53.791Z,22.40
2017-08-30T21:34:21.698Z,22.30
2017-08-30T21:36:49.363Z,22.30
2017-08-30T21:39:17.023Z,22.30
2017-08-30T21:41:45.614Z,22.20
2017-08-30T21:44:13.292Z,22.20
2017-08-30T21:46:40.943Z,22.20
2017-08-30T21:49:08.901Z,22.20
2017-08-30T21:51:36.559Z,22.20
2017-08-30T21:54:04.218Z,22.20
2017-08-30T21:56:32.196Z,22.20
2017-08-30T21:58:59.850Z,22.20
2017-08-30T22:01:27.543Z,22.20
2017-08-30T22:03:55.485Z,22.10
2017-08-30T22:06:23.147Z,22.10
2017-08-30T22:08:50.814Z,22.00
2017-08-30T22:11:21.443Z,21.80
2017-08-30T22:14:06.829Z,21.70
2017-08-30T22:16:35.630Z,21.80
2017-08-30T22:19:03.290Z,21.80
2017-08-30T22:21:30.970Z,21.80
2017-08-30T22:23:58.760Z,21.60
2017-08-30T22:26:26.419Z,21.60
2017-08-30T22:28:54.069Z,21.60
2017-08-30T22:31:22.085Z,21.60
2017-08-30T22:33:49.747Z,21.60
2017-08-30T22:36:17.397Z,21.50
2017-08-30T22:38:45.276Z,21.40
2017-08-30T22:41:13.695Z,21.30
2017-08-30T22:43:41.358Z,21.30
2017-08-30T22:46:09.087Z,21.20
2017-08-30T22:48:36.755Z,21.10
2017-08-30T22:51:04.410Z,21.10
2017-08-30T22:53:33.458Z,21.10
2017-08-30T22:56:01.471Z,21.10
2017-08-30T22:58:30.317Z,21.00
2017-08-30T23:00:58.592Z,20.90
2017-08-30T23:03:26.459Z,21.00
2017-08-30T23:05:54.599Z,21.00
2017-08-30T23:08:22.879Z,21.10
2017-08-30T23:10:50.902Z,21.10
2017-08-30T23:13:18.550Z,21.20
2017-08-30T23:15:46.593Z,21.30
2017-08-30T23:18:14.299Z,21.40
2017-08-30T23:20:42.198Z,21.40
2017-08-30T23:23:10.823Z,21.50
2017-08-30T23:25:39.308Z,21.50
2017-08-30T23:28:08.245Z,21.70
2017-08-30T23:30:36.369Z,21.80
2017-08-30T23:33:04.831Z,21.90
2017-08-30T23:35:32.638Z,21.80
2017-08-30T23:38:00.312Z,21.90
2017-08-30T23:40:28.467Z,21.90
2017-08-30T23:42:57.773Z,22.00
2017-08-30T23:45:25.670Z,22.10
2017-08-30T23:47:54.296Z,22.20
2017-08-30T23:50:23.126Z,22.30
2017-08-30T23:52:51.162Z,22.30
2017-08-30T23:55:19.154Z,22.40
2017-08-30T23:57:47.110Z,22.40
